Terminal Aerodrome Forecast
Issued by NWS

Home | Current Version | Previous Version | Text Only | Print | Product List | Glossary On
Versions: 1 2 3 4 5 6 7 8 9 10 11 12 13
000
FTUS46 KSGX 231700
TAFSNA
TAF
KSNA 231723Z 2318/2418 VRB04KT P6SM FEW015 SCT200
     FM232100 22009KT P6SM SKC
     FM240200 VRB05KT P6SM FEW016
     FM240700 VRB03KT P6SM OVC014
     FM241500 VRB03KT P6SM FEW016=

USA.gov is the U.S. government's official web portal to all federal, state and local government web resources and services.